createdAt,value
2019-02-22T00:02:17.512Z,14.53
2019-02-22T00:04:47.321Z,15.18
2019-02-22T00:07:17.144Z,15.45
2019-02-22T00:09:49.776Z,14.68
2019-02-22T00:12:18.933Z,14.90
2019-02-22T00:14:48.897Z,16.12
2019-02-22T00:17:18.711Z,14.28
2019-02-22T00:19:48.823Z,15.50
2019-02-22T00:22:18.566Z,15.60
2019-02-22T00:24:48.425Z,15.68
2019-02-22T00:27:18.403Z,15.63
2019-02-22T00:29:48.320Z,16.35
2019-02-22T00:32:17.975Z,16.05
2019-02-22T00:34:47.871Z,15.63
2019-02-22T00:37:20.047Z,16.20
2019-02-22T00:39:51.339Z,16.80
2019-02-22T00:42:22.925Z,16.67
2019-02-22T00:44:52.796Z,16.55
2019-02-22T00:47:22.552Z,15.83
2019-02-22T00:49:52.370Z,16.30
2019-02-22T00:52:22.462Z,15.85
2019-02-22T00:54:55.245Z,16.32
2019-02-22T00:57:25.160Z,16.42
2019-02-22T00:59:55.220Z,15.70
2019-02-22T01:02:25.237Z,16.00
2019-02-22T01:04:55.055Z,15.65
2019-02-22T01:07:24.959Z,16.42
2019-02-22T01:09:54.800Z,16.10
2019-02-22T01:12:24.646Z,15.32
2019-02-22T01:14:54.501Z,14.40
2019-02-22T01:17:24.358Z,15.30
2019-02-22T01:19:54.178Z,15.00
2019-02-22T01:22:24.055Z,14.10
2019-02-22T01:24:54.145Z,14.40
2019-02-22T01:27:24.260Z,14.50
2019-02-22T01:29:54.179Z,13.80
2019-02-22T01:32:24.106Z,14.98
2019-02-22T01:34:54.073Z,18.85
2019-02-22T01:37:24.188Z,16.37
2019-02-22T01:39:54.863Z,15.55
2019-02-22T01:42:24.996Z,16.77
2019-02-22T01:45:16.212Z,15.23
2019-02-22T01:47:46.010Z,14.13
2019-02-22T01:50:17.216Z,13.35
2019-02-22T01:52:47.047Z,14.18
2019-02-22T01:55:17.365Z,16.32
2019-02-22T01:57:47.121Z,19.02
2019-02-22T02:00:17.624Z,17.32
2019-02-22T02:02:47.422Z,16.97
2019-02-22T02:05:17.274Z,14.85
2019-02-22T02:07:47.516Z,15.10
2019-02-22T02:10:17.665Z,15.03
2019-02-22T02:12:47.598Z,14.80
2019-02-22T02:15:17.524Z,15.23
2019-02-22T02:17:47.383Z,15.25
2019-02-22T02:20:17.307Z,15.88
2019-02-22T02:22:47.119Z,15.60
2019-02-22T02:25:16.865Z,14.65
2019-02-22T02:27:47.009Z,14.83
2019-02-22T02:30:17.310Z,14.65
2019-02-22T02:32:47.120Z,13.75
2019-02-22T02:35:17.081Z,13.28
2019-02-22T02:37:46.929Z,13.48
2019-02-22T02:40:16.765Z,15.20
2019-02-22T02:42:47.303Z,15.85
2019-02-22T02:45:17.497Z,16.82
2019-02-22T02:47:47.325Z,15.15
2019-02-22T02:50:17.439Z,14.90
2019-02-22T02:52:47.484Z,15.85
2019-02-22T02:55:25.096Z,15.35
2019-02-22T02:57:55.051Z,15.30
2019-02-22T03:00:24.924Z,14.93
2019-02-22T03:02:54.777Z,15.48
2019-02-22T03:05:28.959Z,14.75
2019-02-22T03:08:00.395Z,14.50
2019-02-22T03:10:31.513Z,14.58
2019-02-22T03:13:02.090Z,14.23
2019-02-22T03:15:32.178Z,13.20
2019-02-22T03:18:01.957Z,13.90
2019-02-22T03:20:31.718Z,14.65
2019-02-22T03:23:02.949Z,15.45
2019-02-22T03:25:32.850Z,14.58
2019-02-22T03:28:02.709Z,15.38
2019-02-22T03:30:32.728Z,14.75
2019-02-22T03:33:02.455Z,15.10
2019-02-22T03:35:32.499Z,19.05
2019-02-22T03:38:02.275Z,18.67
2019-02-22T03:40:32.092Z,19.67
2019-02-22T03:43:02.149Z,17.70
2019-02-22T03:45:32.161Z,16.45
2019-02-22T03:48:02.097Z,15.78
2019-02-22T03:50:32.196Z,16.90
2019-02-22T03:53:11.009Z,18.67
2019-02-22T03:55:43.092Z,17.27
2019-02-22T03:58:13.972Z,18.27
2019-02-22T04:00:43.858Z,15.90
2019-02-22T04:03:13.655Z,17.17
2019-02-22T04:05:43.354Z,16.12
2019-02-22T04:08:13.102Z,16.80
2019-02-22T04:10:43.183Z,16.48
2019-02-22T04:13:13.218Z,15.48
2019-02-22T04:15:44.094Z,16.30
2019-02-22T04:18:13.904Z,15.78
2019-02-22T04:20:43.761Z,14.65
2019-02-22T04:23:13.465Z,12.60
2019-02-22T04:25:43.357Z,14.28
2019-02-22T04:28:13.158Z,12.95
2019-02-22T04:30:42.983Z,13.48
2019-02-22T04:33:12.981Z,12.65
2019-02-22T04:35:42.944Z,13.55
2019-02-22T04:38:12.721Z,13.38
2019-02-22T04:40:42.694Z,14.87
2019-02-22T04:43:12.473Z,13.55
2019-02-22T04:45:42.311Z,13.20
2019-02-22T04:48:12.166Z,12.23
2019-02-22T04:50:42.025Z,13.20
2019-02-22T04:53:11.675Z,13.30
2019-02-22T04:55:41.541Z,14.07
2019-02-22T04:58:11.328Z,13.55
2019-02-22T05:00:41.177Z,12.88
2019-02-22T05:03:11.046Z,12.88
2019-02-22T05:05:41.001Z,13.22
2019-02-22T05:08:10.876Z,12.90
2019-02-22T05:10:40.718Z,13.15
2019-02-22T05:13:10.561Z,12.28
2019-02-22T05:15:40.438Z,14.05
2019-02-22T05:18:10.319Z,17.15
2019-02-22T05:20:40.139Z,13.90
2019-02-22T05:23:10.061Z,14.80
2019-02-22T05:25:39.824Z,15.93
2019-02-22T05:28:09.760Z,14.15
2019-02-22T05:30:39.548Z,14.35
2019-02-22T05:33:09.525Z,16.02
2019-02-22T05:35:39.362Z,18.37
2019-02-22T05:38:09.261Z,14.63
2019-02-22T05:40:38.935Z,13.95
2019-02-22T05:43:08.901Z,13.83
2019-02-22T05:45:38.871Z,13.83
2019-02-22T05:48:08.726Z,15.28
2019-02-22T05:50:38.446Z,15.48
2019-02-22T05:53:08.183Z,15.08
2019-02-22T05:55:37.893Z,14.03
2019-02-22T05:58:07.662Z,14.35
2019-02-22T06:00:38.403Z,14.98
2019-02-22T06:03:08.144Z,16.95
2019-02-22T06:05:37.917Z,16.10
2019-02-22T06:08:08.993Z,16.25
2019-02-22T06:10:39.301Z,14.73
2019-02-22T06:13:09.194Z,15.32
2019-02-22T06:15:41.044Z,15.15
2019-02-22T06:18:11.808Z,16.57
2019-02-22T06:20:41.695Z,15.70
2019-02-22T06:23:11.482Z,15.68
2019-02-22T06:25:41.418Z,16.30
2019-02-22T06:28:11.270Z,15.10
2019-02-22T06:30:41.166Z,15.13
2019-02-22T06:33:12.794Z,15.78
2019-02-22T06:35:42.785Z,15.58
2019-02-22T06:38:12.624Z,15.60
2019-02-22T06:40:42.369Z,16.10
2019-02-22T06:43:12.159Z,14.75
2019-02-22T06:45:42.778Z,15.98
2019-02-22T06:48:12.715Z,14.38
2019-02-22T06:50:43.453Z,15.05
2019-02-22T06:53:13.225Z,14.13
2019-02-22T06:55:43.063Z,15.45
2019-02-22T06:58:12.787Z,15.35
2019-02-22T07:00:42.816Z,15.32
2019-02-22T07:03:12.531Z,16.25
2019-02-22T07:05:42.388Z,15.90
2019-02-22T07:08:12.277Z,16.12
2019-02-22T07:10:52.942Z,16.80
2019-02-22T07:13:24.458Z,16.65
2019-02-22T07:15:54.200Z,16.70
2019-02-22T07:18:24.790Z,16.48
2019-02-22T07:20:54.706Z,16.00
2019-02-22T07:23:24.413Z,15.32
2019-02-22T07:25:54.256Z,16.55
2019-02-22T07:28:24.110Z,16.20
2019-02-22T07:30:53.984Z,16.52
2019-02-22T07:33:23.829Z,15.58
2019-02-22T07:35:53.684Z,15.58
2019-02-22T07:38:23.462Z,16.82
2019-02-22T07:40:53.266Z,16.82
2019-02-22T07:43:22.970Z,17.77
2019-02-22T07:45:53.211Z,17.23
2019-02-22T07:48:23.510Z,18.07
2019-02-22T07:50:57.614Z,19.62
2019-02-22T07:53:24.795Z,19.42
2019-02-22T07:55:54.608Z,18.73
2019-02-22T07:58:24.513Z,20.97
2019-02-22T08:00:54.355Z,19.73
2019-02-22T08:03:24.138Z,18.55
2019-02-22T08:05:53.991Z,19.75
2019-02-22T08:08:23.702Z,19.48
2019-02-22T08:10:53.565Z,17.25
2019-02-22T08:13:23.418Z,19.80
2019-02-22T08:15:53.245Z,21.65
2019-02-22T08:18:22.978Z,18.92
2019-02-22T08:20:52.866Z,18.00
2019-02-22T08:23:22.695Z,19.32
2019-02-22T08:25:52.503Z,17.57
2019-02-22T08:28:22.362Z,19.07
2019-02-22T08:30:52.176Z,19.07
2019-02-22T08:33:21.973Z,19.32
2019-02-22T08:35:52.785Z,18.65
2019-02-22T08:38:22.512Z,18.35
2019-02-22T08:40:52.299Z,17.32
2019-02-22T08:43:31.006Z,17.32
2019-02-22T08:45:53.645Z,17.67
2019-02-22T08:48:23.537Z,17.35
2019-02-22T08:50:53.365Z,18.73
2019-02-22T08:53:23.211Z,17.70
2019-02-22T08:55:53.041Z,18.12
2019-02-22T08:58:24.269Z,18.27
2019-02-22T09:00:54.083Z,19.62
2019-02-22T09:03:23.866Z,20.72
2019-02-22T09:05:53.624Z,18.35
2019-02-22T09:08:23.399Z,20.57
2019-02-22T09:11:00.551Z,19.75
2019-02-22T09:13:26.239Z,20.50
2019-02-22T09:15:56.085Z,20.60
2019-02-22T09:18:25.944Z,21.80
2019-02-22T09:20:55.812Z,19.98
2019-02-22T09:23:25.661Z,20.20
2019-02-22T09:25:55.466Z,21.05
2019-02-22T09:28:25.441Z,19.90
2019-02-22T09:30:55.255Z,19.15
2019-02-22T09:33:26.565Z,19.80
2019-02-22T09:35:56.377Z,20.35
2019-02-22T09:38:26.081Z,20.60
2019-02-22T09:40:56.071Z,19.85
2019-02-22T09:43:25.854Z,21.45
2019-02-22T09:45:55.632Z,23.87
2019-02-22T09:48:26.154Z,25.35
2019-02-22T09:50:55.921Z,26.40
2019-02-22T09:53:25.550Z,25.97
2019-02-22T09:55:55.321Z,24.77
2019-02-22T09:58:25.093Z,23.75
2019-02-22T10:00:55.079Z,23.25
2019-02-22T10:03:24.870Z,23.12
2019-02-22T10:05:54.600Z,22.30
2019-02-22T10:08:24.323Z,23.18
2019-02-22T10:10:53.983Z,23.05
2019-02-22T10:13:23.674Z,20.45
2019-02-22T10:15:53.437Z,21.30
2019-02-22T10:18:23.208Z,19.92
2019-02-22T10:20:53.127Z,18.82
2019-02-22T10:23:23.510Z,20.57
2019-02-22T10:25:53.244Z,20.35
2019-02-22T10:28:22.963Z,17.52
2019-02-22T10:30:54.378Z,20.80
2019-02-22T10:33:24.103Z,18.52
2019-02-22T10:35:53.849Z,18.30
2019-02-22T10:38:23.574Z,20.12
2019-02-22T10:40:53.508Z,20.12
2019-02-22T10:43:23.380Z,20.30
2019-02-22T10:45:53.250Z,19.25
2019-02-22T10:48:23.146Z,19.87
2019-02-22T10:50:52.954Z,19.90
2019-02-22T10:53:22.946Z,19.55
2019-02-22T10:55:52.794Z,20.02
2019-02-22T10:58:22.564Z,21.50
2019-02-22T11:00:52.295Z,20.77
2019-02-22T11:03:22.110Z,21.60
2019-02-22T11:05:51.813Z,20.57
2019-02-22T11:08:21.546Z,21.12
2019-02-22T11:10:53.195Z,21.37
2019-02-22T11:13:23.338Z,22.30
2019-02-22T11:15:53.941Z,21.33
2019-02-22T11:18:23.859Z,21.68
2019-02-22T11:20:54.176Z,21.40
2019-02-22T11:23:24.868Z,22.17
2019-02-22T11:25:54.645Z,20.90
2019-02-22T11:28:24.459Z,19.27
2019-02-22T11:30:54.278Z,16.65
2019-02-22T11:33:23.965Z,18.87
2019-02-22T11:35:53.869Z,19.25
2019-02-22T11:38:23.698Z,19.45
2019-02-22T11:40:53.511Z,17.37
2019-02-22T11:43:23.418Z,17.75
2019-02-22T11:45:53.332Z,16.85
2019-02-22T11:48:23.146Z,17.40
2019-02-22T11:50:52.975Z,17.50
2019-02-22T11:53:22.774Z,18.35
2019-02-22T11:55:52.526Z,19.60
2019-02-22T11:58:22.394Z,20.15
2019-02-22T12:00:52.301Z,20.68
2019-02-22T12:03:24.911Z,23.45
2019-02-22T12:05:53.436Z,19.37
2019-02-22T12:08:23.277Z,22.32
2019-02-22T12:10:54.112Z,23.62
2019-02-22T12:13:23.885Z,23.73
2019-02-22T12:15:53.714Z,23.52
2019-02-22T12:18:24.527Z,25.35
2019-02-22T12:20:54.403Z,24.05
2019-02-22T12:23:25.841Z,24.82
2019-02-22T12:25:55.663Z,24.75
2019-02-22T12:28:25.474Z,24.05
2019-02-22T12:30:55.251Z,25.92
2019-02-22T12:33:25.062Z,25.70
2019-02-22T12:35:54.954Z,19.12
2019-02-22T12:38:24.820Z,20.05
2019-02-22T12:40:54.566Z,20.80
2019-02-22T12:43:25.394Z,19.12
2019-02-22T12:45:55.169Z,21.25
2019-02-22T12:48:24.993Z,21.12
2019-02-22T12:50:54.814Z,19.95
2019-02-22T12:53:24.560Z,21.07
2019-02-22T12:55:54.212Z,23.27
2019-02-22T12:58:24.022Z,23.50
2019-02-22T13:00:53.727Z,23.32
2019-02-22T13:03:23.519Z,24.05
2019-02-22T13:05:53.585Z,23.85
2019-02-22T13:08:23.567Z,23.32
2019-02-22T13:10:53.495Z,24.18
2019-02-22T13:13:23.343Z,22.80
2019-02-22T13:15:53.995Z,25.15
2019-02-22T13:18:23.808Z,24.80
2019-02-22T13:20:54.321Z,24.70
2019-02-22T13:23:24.148Z,25.05
2019-02-22T13:25:53.905Z,24.25
2019-02-22T13:28:23.700Z,23.98
2019-02-22T13:30:53.452Z,22.70
2019-02-22T13:33:23.259Z,23.83
2019-02-22T13:35:53.404Z,23.38
2019-02-22T13:38:24.746Z,24.65
2019-02-22T13:40:54.581Z,23.22
2019-02-22T13:43:24.656Z,25.20
2019-02-22T13:45:54.573Z,25.08
2019-02-22T13:48:24.351Z,23.85
2019-02-22T13:50:54.198Z,22.82
2019-02-22T13:53:24.189Z,24.12
2019-02-22T13:55:54.039Z,24.15
2019-02-22T13:58:25.036Z,23.02
2019-02-22T14:00:55.397Z,21.00
2019-02-22T14:03:25.209Z,22.20
2019-02-22T14:05:55.034Z,19.60
2019-02-22T14:08:24.854Z,20.45
2019-02-22T14:10:54.752Z,20.82
2019-02-22T14:13:24.569Z,19.82
2019-02-22T14:15:54.432Z,21.30
2019-02-22T14:18:24.115Z,18.40
2019-02-22T14:20:53.944Z,17.98
2019-02-22T14:23:23.728Z,16.77
2019-02-22T14:25:53.514Z,17.73
2019-02-22T14:28:23.220Z,16.05
2019-02-22T14:30:53.042Z,15.80
2019-02-22T14:33:22.768Z,17.30
2019-02-22T14:35:52.567Z,16.93
2019-02-22T14:38:22.314Z,17.30
2019-02-22T14:40:52.200Z,17.37
2019-02-22T14:43:22.139Z,21.05
2019-02-22T14:45:53.207Z,22.35
2019-02-22T14:48:23.773Z,21.75
2019-02-22T14:50:54.213Z,21.90
2019-02-22T14:53:24.010Z,20.50
2019-02-22T14:55:54.153Z,20.48
2019-02-22T14:58:23.893Z,20.70
2019-02-22T15:00:54.122Z,19.98
2019-02-22T15:03:24.043Z,18.95
2019-02-22T15:05:53.847Z,19.10
2019-02-22T15:08:23.606Z,19.95
2019-02-22T15:10:53.454Z,19.48
2019-02-22T15:13:23.450Z,18.27
2019-02-22T15:16:03.657Z,23.92
2019-02-22T15:18:32.500Z,23.70
2019-02-22T15:21:02.283Z,16.75
2019-02-22T15:23:34.522Z,24.77
2019-02-22T15:26:05.119Z,22.50
2019-02-22T15:28:34.998Z,17.45
2019-02-22T15:31:04.889Z,20.23
2019-02-22T15:33:34.785Z,22.02
2019-02-22T15:36:05.432Z,22.27
2019-02-22T15:38:35.275Z,22.20
2019-02-22T15:41:05.635Z,21.35
2019-02-22T15:43:35.543Z,16.57
2019-02-22T15:46:12.237Z,15.68
2019-02-22T15:48:36.864Z,15.48
2019-02-22T15:51:07.462Z,14.87
2019-02-22T15:53:37.812Z,13.85
2019-02-22T15:56:07.758Z,14.15
2019-02-22T15:58:37.627Z,13.90
2019-02-22T16:01:07.523Z,14.40
2019-02-22T16:03:57.146Z,12.85
2019-02-22T16:06:26.957Z,21.65
2019-02-22T16:08:56.786Z,19.50
2019-02-22T16:11:26.568Z,22.15
2019-02-22T16:13:56.402Z,21.35
2019-02-22T16:16:26.171Z,21.23
2019-02-22T16:18:56.068Z,20.55
2019-02-22T16:21:25.911Z,21.33
2019-02-22T16:23:55.713Z,21.62
2019-02-22T16:26:27.524Z,20.50
2019-02-22T16:28:57.836Z,22.20
2019-02-22T16:31:27.698Z,21.90
2019-02-22T16:33:57.739Z,20.15
2019-02-22T16:36:27.597Z,20.23
2019-02-22T16:38:57.492Z,21.60
2019-02-22T16:41:27.375Z,20.32
2019-02-22T16:43:57.273Z,20.43
2019-02-22T16:46:34.413Z,20.88
2019-02-22T16:48:58.791Z,20.62
2019-02-22T16:51:28.591Z,20.55
2019-02-22T16:53:58.541Z,21.48
2019-02-22T16:56:28.274Z,20.77
2019-02-22T16:58:58.243Z,20.72
2019-02-22T17:01:28.067Z,19.50
2019-02-22T17:03:58.339Z,23.75
2019-02-22T17:06:28.306Z,21.25
2019-02-22T17:08:58.572Z,19.32
2019-02-22T17:11:28.502Z,20.30
2019-02-22T17:13:58.328Z,20.52
2019-02-22T17:16:28.256Z,20.12
2019-02-22T17:18:58.275Z,19.85
2019-02-22T17:21:28.112Z,22.22
2019-02-22T17:23:57.984Z,20.68
2019-02-22T17:26:27.852Z,20.25
2019-02-22T17:28:57.728Z,23.65
2019-02-22T17:31:27.625Z,22.00
2019-02-22T17:33:57.618Z,21.60
2019-02-22T17:36:27.527Z,21.82
2019-02-22T17:38:58.147Z,20.80
2019-02-22T17:41:27.935Z,19.90
2019-02-22T17:43:57.781Z,21.17
2019-02-22T17:46:56.984Z,19.73
2019-02-22T17:49:18.045Z,18.80
2019-02-22T17:51:48.058Z,20.55
2019-02-22T17:54:18.367Z,22.02
2019-02-22T17:56:48.149Z,23.52
2019-02-22T17:59:18.173Z,20.32
2019-02-22T18:01:47.885Z,24.43
2019-02-22T18:04:17.711Z,21.55
2019-02-22T18:06:47.746Z,23.67
2019-02-22T18:09:17.725Z,22.42
2019-02-22T18:11:48.530Z,22.77
2019-02-22T18:14:18.776Z,25.12
2019-02-22T18:16:48.564Z,24.60
2019-02-22T18:19:18.759Z,21.77
2019-02-22T18:21:48.481Z,20.80
2019-02-22T18:24:18.671Z,21.55
2019-02-22T18:26:48.472Z,21.45
2019-02-22T18:29:18.312Z,21.00
2019-02-22T18:31:48.238Z,22.42
2019-02-22T18:34:18.439Z,20.92
2019-02-22T18:39:41.778Z,18.50
2019-02-22T18:42:11.622Z,19.95
2019-02-22T18:44:41.507Z,22.27
2019-02-22T18:47:19.139Z,26.25
2019-02-22T18:49:42.887Z,21.02
2019-02-22T18:52:12.671Z,21.45
2019-02-22T18:54:42.489Z,21.85
2019-02-22T18:57:12.258Z,21.40
2019-02-22T18:59:42.073Z,21.37
2019-02-22T19:02:11.905Z,20.08
2019-02-22T19:04:41.662Z,21.33
2019-02-22T19:07:11.532Z,20.17
2019-02-22T19:09:41.326Z,22.10
2019-02-22T19:12:11.217Z,20.25
2019-02-22T19:14:41.053Z,21.17
2019-02-22T19:17:11.663Z,22.42
2019-02-22T19:19:41.719Z,22.77
2019-02-22T19:22:11.453Z,22.98
2019-02-22T19:24:41.341Z,21.33
2019-02-22T19:27:11.983Z,20.32
2019-02-22T19:29:41.700Z,21.87
2019-02-22T19:32:12.264Z,21.57
2019-02-22T19:34:42.076Z,23.12
2019-02-22T19:37:11.904Z,22.42
2019-02-22T19:39:41.733Z,23.00
2019-02-22T19:42:11.522Z,22.48
2019-02-22T19:44:41.291Z,21.62
2019-02-22T19:47:11.112Z,23.52
2019-02-22T19:49:41.072Z,23.67
2019-02-22T19:52:11.079Z,22.95
2019-02-22T19:54:40.855Z,22.30
2019-02-22T19:57:11.049Z,23.90
2019-02-22T19:59:41.484Z,24.15
2019-02-22T20:02:11.553Z,23.92
2019-02-22T20:04:41.395Z,23.52
2019-02-22T20:07:11.221Z,24.95
2019-02-22T20:09:40.998Z,24.35
2019-02-22T20:12:10.802Z,24.80
2019-02-22T20:14:40.605Z,26.02
2019-02-22T20:17:10.538Z,25.88
2019-02-22T20:19:40.334Z,26.10
2019-02-22T20:22:10.982Z,27.00
2019-02-22T20:24:41.464Z,24.92
2019-02-22T20:27:11.366Z,23.62
2019-02-22T20:29:41.347Z,22.35
2019-02-22T20:32:11.348Z,21.45
2019-02-22T20:34:41.294Z,21.15
2019-02-22T20:37:11.201Z,20.27
2019-02-22T20:39:41.071Z,19.77
2019-02-22T20:42:13.524Z,19.52
2019-02-22T20:44:43.753Z,18.20
2019-02-22T20:47:14.021Z,19.60
2019-02-22T20:49:43.753Z,17.20
2019-02-22T20:52:13.552Z,17.80
2019-02-22T20:54:43.377Z,16.87
2019-02-22T20:57:13.269Z,17.98
2019-02-22T20:59:43.139Z,17.82
2019-02-22T21:02:13.305Z,17.35
2019-02-22T21:04:43.141Z,18.48
2019-02-22T21:07:12.985Z,16.62
2019-02-22T21:09:42.713Z,19.27
2019-02-22T21:12:12.649Z,17.95
2019-02-22T21:14:42.669Z,18.10
2019-02-22T21:17:12.655Z,17.95
2019-02-22T21:19:42.721Z,16.57
2019-02-22T21:22:12.679Z,18.50
2019-02-22T21:24:43.086Z,15.90
2019-02-22T21:27:14.871Z,16.57
2019-02-22T21:29:44.715Z,16.05
2019-02-22T21:32:14.662Z,15.98
2019-02-22T21:34:44.569Z,15.75
2019-02-22T21:37:14.593Z,15.65
2019-02-22T21:39:44.677Z,15.32
2019-02-22T21:42:20.040Z,15.40
2019-02-22T21:44:45.979Z,14.47
2019-02-22T21:47:15.890Z,14.35
2019-02-22T21:49:45.757Z,14.18
2019-02-22T21:52:15.685Z,15.18
2019-02-22T21:54:45.564Z,14.68
2019-02-22T21:57:15.585Z,14.90
2019-02-22T21:59:45.474Z,13.90
2019-02-22T22:02:16.837Z,12.78
2019-02-22T22:04:48.634Z,12.65
2019-02-22T22:07:19.738Z,13.72
2019-02-22T22:09:49.556Z,12.58
2019-02-22T22:12:19.486Z,13.38
2019-02-22T22:14:49.302Z,12.58
2019-02-22T22:17:19.093Z,12.37
2019-02-22T22:19:48.849Z,12.73
2019-02-22T22:22:18.875Z,13.93
2019-02-22T22:24:48.642Z,12.50
2019-02-22T22:27:18.460Z,13.22
2019-02-22T22:29:48.304Z,12.65
2019-02-22T22:32:18.150Z,12.63
2019-02-22T22:34:47.846Z,12.37
2019-02-22T22:37:17.648Z,12.03
2019-02-22T22:39:47.421Z,12.15
2019-02-22T22:42:17.251Z,12.93
2019-02-22T22:44:47.032Z,12.25
2019-02-22T22:47:17.065Z,11.75
2019-02-22T22:49:46.851Z,13.10
2019-02-22T22:52:16.679Z,11.73
2019-02-22T22:54:46.460Z,15.00
2019-02-22T22:57:16.353Z,11.10
2019-02-22T22:59:46.276Z,11.08
2019-02-22T23:02:16.353Z,12.18
2019-02-22T23:04:46.342Z,12.23
2019-02-22T23:07:16.252Z,11.85
2019-02-22T23:09:47.750Z,12.40
2019-02-22T23:12:17.653Z,11.75
2019-02-22T23:14:47.514Z,11.73
2019-02-22T23:17:17.491Z,11.78
2019-02-22T23:19:48.917Z,11.38
2019-02-22T23:22:18.950Z,12.65
2019-02-22T23:24:48.850Z,11.65
2019-02-22T23:27:18.878Z,11.65
2019-02-22T23:29:48.666Z,11.88
2019-02-22T23:32:18.923Z,12.28
2019-02-22T23:34:48.887Z,12.37
2019-02-22T23:37:18.655Z,12.00
2019-02-22T23:39:48.287Z,11.85
2019-02-22T23:42:19.721Z,11.83
2019-02-22T23:44:49.687Z,11.25
2019-02-22T23:47:19.437Z,12.53
2019-02-22T23:49:49.410Z,12.85
2019-02-22T23:52:19.287Z,11.75
2019-02-22T23:54:49.137Z,11.95
2019-02-22T23:57:18.940Z,11.88
2019-02-22T23:59:48.803Z,12.80
